Time;durP1;ratioP1;P1;durP2;ratioP2;P2;SDS_P1;SDS_P2;PMS_P1;PMS_P2;Temp;Humidity;BMP_temperature;BMP_pressure;BME280_temperature;BME280_humidity;BME280_pressure;Samples;Min_cycle;Max_cycle;Signal;HPM_P1;HPM_P2
2022/08/22 00:02:31;;;;;;;2.70;2.50;;;;;;;;;;5033854;28;20395;-31
2022/08/22 00:05:02;;;;;;;4.73;2.10;;;;;;;;;;5034088;28;20218;-34
2022/08/22 00:07:40;;;;;;;2.83;2.30;;;;;;;;;;5042187;28;20424;-34
2022/08/22 00:10:11;;;;;;;4.10;3.00;;;;;;;;;;5041688;28;20206;-34
2022/08/22 00:12:41;;;;;;;2.17;2.00;;;;;;;;;;5040644;28;20215;-33
2022/08/22 00:15:11;;;;;;;7.07;2.07;;;;;;;;;;5045594;28;20674;-36
2022/08/22 00:17:44;;;;;;;4.50;2.33;;;;;;;;;;5035988;28;20219;-34
2022/08/22 00:20:14;;;;;;;3.17;2.33;;;;;;;;;;5028974;28;20216;-32
2022/08/22 00:22:48;;;;;;;2.30;2.10;;;;;;;;;;5029272;28;20202;-33
2022/08/22 00:25:25;;;;;;;5.67;2.30;;;;;;;;;;5028295;28;20211;-32
2022/08/22 00:27:54;;;;;;;2.67;2.47;;;;;;;;;;5044947;28;20219;-31
2022/08/22 00:30:21;;;;;;;2.50;2.30;;;;;;;;;;5045888;28;20211;-30
2022/08/22 00:32:50;;;;;;;2.03;1.90;;;;;;;;;;5040077;28;20277;-34
2022/08/22 00:35:20;;;;;;;4.20;2.30;;;;;;;;;;5043084;28;20226;-32
2022/08/22 00:37:56;;;;;;;4.20;2.40;;;;;;;;;;5036128;28;20231;-33
2022/08/22 00:40:30;;;;;;;4.40;2.53;;;;;;;;;;5035746;28;20570;-33
2022/08/22 00:43:23;;;;;;;2.60;2.40;;;;;;;;;;5045776;28;20531;-30
2022/08/22 00:46:07;;;;;;;4.73;2.80;;;;;;;;;;5045835;28;20210;-31
2022/08/22 00:48:53;;;;;;;3.37;2.23;;;;;;;;;;5024482;28;20215;-34
2022/08/22 00:51:47;;;;;;;2.90;2.40;;;;;;;;;;5028853;28;20205;-34
2022/08/22 00:54:24;;;;;;;5.20;2.50;;;;;;;;;;4993534;28;20227;-30
2022/08/22 00:57:12;;;;;;;4.03;2.23;;;;;;;;;;5041075;28;20219;-34
2022/08/22 00:59:57;;;;;;;3.03;2.40;;;;;;;;;;5011490;28;20202;-35
2022/08/22 01:02:31;;;;;;;2.53;2.30;;;;;;;;;;5036763;28;20205;-34
2022/08/22 01:05:06;;;;;;;3.23;2.53;;;;;;;;;;5033441;28;20204;-34
2022/08/22 01:07:42;;;;;;;3.10;2.20;;;;;;;;;;5039446;28;20230;-35
2022/08/22 01:10:18;;;;;;;2.30;2.10;;;;;;;;;;5037907;28;20202;-32
2022/08/22 01:12:57;;;;;;;5.23;2.00;;;;;;;;;;5029457;28;20256;-34
2022/08/22 01:15:26;;;;;;;3.17;2.30;;;;;;;;;;5038845;28;20206;-34
2022/08/22 01:18:08;;;;;;;2.80;2.13;;;;;;;;;;5032240;28;20227;-31
2022/08/22 01:20:50;;;;;;;3.33;2.70;;;;;;;;;;5042710;28;20198;-32
2022/08/22 01:23:31;;;;;;;3.20;2.90;;;;;;;;;;5035151;28;20192;-34
2022/08/22 01:26:24;;;;;;;3.57;2.20;;;;;;;;;;5039646;28;20199;-30
2022/08/22 01:29:05;;;;;;;2.40;2.20;;;;;;;;;;4993282;28;20214;-32
2022/08/22 01:31:47;;;;;;;2.87;2.07;;;;;;;;;;5035540;28;20203;-31
2022/08/22 01:34:36;;;;;;;2.47;2.17;;;;;;;;;;5042347;28;20289;-35
2022/08/22 01:37:27;;;;;;;3.37;2.20;;;;;;;;;;5043319;28;20224;-34
2022/08/22 01:40:14;;;;;;;2.70;2.40;;;;;;;;;;5033422;28;20199;-33
2022/08/22 01:42:47;;;;;;;2.57;2.33;;;;;;;;;;5028929;28;20696;-32
2022/08/22 01:45:33;;;;;;;3.73;2.70;;;;;;;;;;5029089;28;20218;-33
2022/08/22 01:48:05;;;;;;;4.33;2.60;;;;;;;;;;5045889;28;20222;-34
2022/08/22 01:50:37;;;;;;;2.57;2.30;;;;;;;;;;5050125;28;20190;-33
2022/08/22 01:53:07;;;;;;;2.50;2.20;;;;;;;;;;5042734;28;20221;-33
2022/08/22 01:55:35;;;;;;;4.00;2.27;;;;;;;;;;5041012;28;20208;-34
2022/08/22 01:58:15;;;;;;;3.07;2.33;;;;;;;;;;5041320;28;20225;-32
2022/08/22 02:00:55;;;;;;;3.97;2.40;;;;;;;;;;5045175;28;20232;-35
2022/08/22 02:03:26;;;;;;;3.03;2.00;;;;;;;;;;5031206;28;20198;-30
2022/08/22 02:06:00;;;;;;;3.17;2.13;;;;;;;;;;5049136;28;20198;-30
2022/08/22 02:08:31;;;;;;;1.70;1.60;;;;;;;;;;5038784;28;20226;-33
2022/08/22 02:11:03;;;;;;;2.50;2.20;;;;;;;;;;5029536;28;20199;-33
2022/08/22 02:13:35;;;;;;;2.80;2.40;;;;;;;;;;5047541;28;20225;-34
2022/08/22 02:16:07;;;;;;;2.87;2.03;;;;;;;;;;5048751;28;20207;-32
2022/08/22 02:18:42;;;;;;;3.57;2.60;;;;;;;;;;5032138;28;20322;-34
2022/08/22 02:21:16;;;;;;;4.40;2.17;;;;;;;;;;5036171;28;20281;-33
2022/08/22 02:23:47;;;;;;;2.50;2.30;;;;;;;;;;5039253;28;20206;-36
2022/08/22 02:26:16;;;;;;;5.13;2.30;;;;;;;;;;5046462;28;20224;-30
2022/08/22 02:28:49;;;;;;;3.03;2.03;;;;;;;;;;5047932;28;20241;-31
2022/08/22 02:31:18;;;;;;;2.87;2.10;;;;;;;;;;5041492;28;20195;-32
2022/08/22 02:33:49;;;;;;;4.50;2.37;;;;;;;;;;5034607;28;20248;-32
2022/08/22 02:36:20;;;;;;;2.87;2.17;;;;;;;;;;5038968;28;20210;-32
2022/08/22 02:38:53;;;;;;;2.50;2.00;;;;;;;;;;5027658;28;20685;-34
2022/08/22 02:41:23;;;;;;;3.57;2.43;;;;;;;;;;5035267;28;20285;-32
2022/08/22 02:43:54;;;;;;;2.40;2.20;;;;;;;;;;5027441;28;20213;-34
2022/08/22 02:46:23;;;;;;;5.60;2.37;;;;;;;;;;5029190;28;20209;-30
2022/08/22 02:48:56;;;;;;;2.57;2.27;;;;;;;;;;5045868;28;20206;-31
2022/08/22 02:51:28;;;;;;;2.30;2.10;;;;;;;;;;5047430;28;20723;-34
2022/08/22 02:53:57;;;;;;;1.93;1.80;;;;;;;;;;5041534;28;20226;-33
2022/08/22 02:56:29;;;;;;;4.47;1.90;;;;;;;;;;5039206;28;20280;-31
2022/08/22 02:58:58;;;;;;;2.50;2.30;;;;;;;;;;5047437;28;20555;-32
2022/08/22 03:01:33;;;;;;;2.83;2.07;;;;;;;;;;5042216;28;20300;-36
2022/08/22 03:04:15;;;;;;;2.60;2.40;;;;;;;;;;5029256;28;20230;-34
2022/08/22 03:06:45;;;;;;;2.40;2.20;;;;;;;;;;5028113;28;20198;-34
2022/08/22 03:09:24;;;;;;;3.43;2.17;;;;;;;;;;5035652;28;20206;-32
2022/08/22 03:11:54;;;;;;;4.33;2.50;;;;;;;;;;5042226;28;20205;-30
2022/08/22 03:14:23;;;;;;;3.10;2.70;;;;;;;;;;5047171;28;20198;-36
2022/08/22 03:16:52;;;;;;;3.00;2.23;;;;;;;;;;5041838;28;20230;-29
2022/08/22 03:19:23;;;;;;;2.97;2.57;;;;;;;;;;5030008;28;20431;-29
2022/08/22 03:21:54;;;;;;;4.57;2.60;;;;;;;;;;5042882;28;20206;-33
2022/08/22 03:24:24;;;;;;;2.90;2.60;;;;;;;;;;5042019;28;20198;-30
2022/08/22 03:26:52;;;;;;;3.90;2.60;;;;;;;;;;5038715;28;20223;-29
2022/08/22 03:29:23;;;;;;;3.00;2.30;;;;;;;;;;5047017;28;20206;-35
2022/08/22 03:32:05;;;;;;;2.30;2.10;;;;;;;;;;5036662;28;20248;-34
2022/08/22 03:34:32;;;;;;;4.30;2.50;;;;;;;;;;5039884;28;20218;-35
2022/08/22 03:37:05;;;;;;;4.47;2.40;;;;;;;;;;5024252;28;20232;-32
2022/08/22 03:39:53;;;;;;;3.40;3.10;;;;;;;;;;5032192;28;20203;-29
2022/08/22 03:42:31;;;;;;;3.23;2.63;;;;;;;;;;5033023;28;20212;-34
2022/08/22 03:45:13;;;;;;;3.13;2.17;;;;;;;;;;5041564;28;20202;-34
2022/08/22 03:47:52;;;;;;;4.93;2.30;;;;;;;;;;5031251;28;20242;-32
2022/08/22 03:50:39;;;;;;;3.23;2.47;;;;;;;;;;5045614;28;20201;-34
2022/08/22 03:53:31;;;;;;;2.50;2.27;;;;;;;;;;5040786;28;20230;-34
2022/08/22 03:56:22;;;;;;;2.30;2.10;;;;;;;;;;5036184;28;20598;-33
2022/08/22 03:59:01;;;;;;;2.57;2.13;;;;;;;;;;5045863;28;20230;-30
2022/08/22 04:01:51;;;;;;;2.87;2.57;;;;;;;;;;5043166;28;20201;-35
2022/08/22 04:04:27;;;;;;;6.17;3.03;;;;;;;;;;5028263;28;20558;-33
2022/08/22 04:07:07;;;;;;;2.80;2.60;;;;;;;;;;5030685;28;20228;-35
2022/08/22 04:09:52;;;;;;;2.17;1.97;;;;;;;;;;5039409;28;20472;-33
2022/08/22 04:12:28;;;;;;;2.30;2.10;;;;;;;;;;5043346;28;20216;-32
2022/08/22 04:15:13;;;;;;;2.27;2.10;;;;;;;;;;5046111;28;20205;-37
2022/08/22 04:17:52;;;;;;;3.13;2.10;;;;;;;;;;5035525;28;20228;-35
2022/08/22 04:20:21;;;;;;;2.83;2.20;;;;;;;;;;5045836;28;20201;-33
2022/08/22 04:23:08;;;;;;;4.17;2.53;;;;;;;;;;5039709;28;20197;-32
2022/08/22 04:25:39;;;;;;;2.40;2.20;;;;;;;;;;5025568;28;20394;-31
2022/08/22 04:28:09;;;;;;;2.43;2.23;;;;;;;;;;5043524;28;20300;-33
2022/08/22 04:30:38;;;;;;;3.77;2.40;;;;;;;;;;5040327;28;20543;-34
2022/08/22 04:33:06;;;;;;;2.17;1.87;;;;;;;;;;5035060;28;20229;-32
2022/08/22 04:35:36;;;;;;;3.03;2.07;;;;;;;;;;5039188;28;20205;-33
2022/08/22 04:38:06;;;;;;;3.23;2.40;;;;;;;;;;5037781;28;20543;-34
2022/08/22 04:40:36;;;;;;;2.57;2.37;;;;;;;;;;5033118;28;20205;-31
2022/08/22 04:43:09;;;;;;;4.60;2.43;;;;;;;;;;5046511;28;20221;-35
2022/08/22 04:45:38;;;;;;;2.97;2.27;;;;;;;;;;5048824;28;20190;-31
2022/08/22 04:48:08;;;;;;;2.53;2.20;;;;;;;;;;5040351;28;20600;-33
2022/08/22 04:50:37;;;;;;;3.07;2.50;;;;;;;;;;5040281;28;20213;-33
2022/08/22 04:53:11;;;;;;;3.50;2.30;;;;;;;;;;5028754;28;20915;-34
2022/08/22 04:55:45;;;;;;;2.53;2.33;;;;;;;;;;5041952;28;20256;-32
2022/08/22 04:58:25;;;;;;;2.60;2.40;;;;;;;;;;5037521;28;20238;-31
2022/08/22 05:00:54;;;;;;;3.43;2.53;;;;;;;;;;5032092;28;20191;-33
2022/08/22 05:03:23;;;;;;;2.43;2.23;;;;;;;;;;5031823;28;20195;-34
2022/08/22 05:05:51;;;;;;;2.67;2.20;;;;;;;;;;5035906;28;20212;-29
2022/08/22 05:08:20;;;;;;;2.97;2.07;;;;;;;;;;5031659;28;20222;-32
2022/08/22 05:10:48;;;;;;;3.17;2.60;;;;;;;;;;5034899;28;20297;-31
2022/08/22 05:13:18;;;;;;;2.70;2.50;;;;;;;;;;5034062;28;20214;-33
2022/08/22 05:15:48;;;;;;;4.23;2.33;;;;;;;;;;5038706;28;20195;-31
2022/08/22 05:18:17;;;;;;;4.27;2.27;;;;;;;;;;5038088;28;20998;-31
2022/08/22 05:20:46;;;;;;;2.87;2.03;;;;;;;;;;5042674;28;20206;-33
2022/08/22 05:23:14;;;;;;;2.30;2.10;;;;;;;;;;5035234;28;20206;-33
2022/08/22 05:25:42;;;;;;;3.57;2.37;;;;;;;;;;5037680;28;20213;-29
2022/08/22 05:28:11;;;;;;;2.93;2.27;;;;;;;;;;5034588;28;20223;-34
2022/08/22 05:30:40;;;;;;;4.57;2.97;;;;;;;;;;5029674;28;20237;-28
2022/08/22 05:33:14;;;;;;;2.67;2.47;;;;;;;;;;5043341;28;20692;-31
2022/08/22 05:35:43;;;;;;;3.60;2.83;;;;;;;;;;5040026;28;20190;-31
2022/08/22 05:38:13;;;;;;;3.13;2.63;;;;;;;;;;5029806;28;20229;-31
2022/08/22 05:40:41;;;;;;;2.87;2.57;;;;;;;;;;5041368;28;20225;-33
2022/08/22 05:43:10;;;;;;;3.07;2.63;;;;;;;;;;5029032;28;20660;-34
2022/08/22 05:45:38;;;;;;;2.07;1.93;;;;;;;;;;5028411;28;20211;-33
2022/08/22 05:48:09;;;;;;;6.43;2.57;;;;;;;;;;5042247;28;20226;-32
2022/08/22 05:50:37;;;;;;;3.10;2.60;;;;;;;;;;5046168;28;20559;-35
2022/08/22 05:53:06;;;;;;;3.70;2.70;;;;;;;;;;5041251;28;20210;-29
2022/08/22 05:55:37;;;;;;;3.67;2.70;;;;;;;;;;5037005;28;20211;-33
2022/08/22 05:58:13;;;;;;;5.60;2.90;;;;;;;;;;5050787;28;20236;-33
2022/08/22 06:00:42;;;;;;;3.60;2.23;;;;;;;;;;5049591;28;20251;-30
2022/08/22 06:03:15;;;;;;;4.30;2.57;;;;;;;;;;5044804;28;20213;-31
2022/08/22 06:05:47;;;;;;;2.70;2.50;;;;;;;;;;5046248;28;20198;-34
2022/08/22 06:08:18;;;;;;;3.37;2.90;;;;;;;;;;5047129;28;20555;-32
2022/08/22 06:10:46;;;;;;;3.67;2.20;;;;;;;;;;5049882;28;20206;-30
2022/08/22 06:13:17;;;;;;;3.03;2.73;;;;;;;;;;5049976;28;20225;-32
2022/08/22 06:15:46;;;;;;;3.83;2.70;;;;;;;;;;5039160;28;20210;-31
2022/08/22 06:18:16;;;;;;;6.07;3.30;;;;;;;;;;5038536;28;20223;-31
2022/08/22 06:20:44;;;;;;;3.40;2.50;;;;;;;;;;5051518;28;20206;-32
2022/08/22 06:23:15;;;;;;;4.00;2.90;;;;;;;;;;5037551;28;20211;-27
2022/08/22 06:25:45;;;;;;;4.47;3.03;;;;;;;;;;5032693;28;20237;-32
2022/08/22 06:28:14;;;;;;;4.57;2.50;;;;;;;;;;5049076;28;20240;-30
2022/08/22 06:30:45;;;;;;;3.53;2.93;;;;;;;;;;5049161;28;20213;-31
2022/08/22 06:33:14;;;;;;;3.33;2.73;;;;;;;;;;5040782;28;20210;-30
2022/08/22 06:38:32;;;;;;;3.53;2.80;;;;;;;;;;5030206;28;20322;-34
2022/08/22 06:41:01;;;;;;;6.57;3.37;;;;;;;;;;5048814;28;20202;-32
2022/08/22 06:43:36;;;;;;;5.37;3.07;;;;;;;;;;5031174;28;20531;-33
2022/08/22 06:46:04;;;;;;;3.23;2.83;;;;;;;;;;5033677;28;20206;-32
2022/08/22 06:48:31;;;;;;;5.07;3.23;;;;;;;;;;5035960;28;20228;-31
2022/08/22 06:51:00;;;;;;;5.60;3.20;;;;;;;;;;5039352;28;20194;-33
2022/08/22 06:53:28;;;;;;;7.57;3.60;;;;;;;;;;5033239;28;20226;-32
2022/08/22 06:55:56;;;;;;;4.67;3.30;;;;;;;;;;5047437;28;20206;-35
2022/08/22 06:58:27;;;;;;;5.23;3.00;;;;;;;;;;5030502;28;20227;-32
2022/08/22 07:01:00;;;;;;;3.30;3.00;;;;;;;;;;5031809;28;20255;-35
2022/08/22 07:03:31;;;;;;;5.10;3.37;;;;;;;;;;5032956;28;20742;-36
2022/08/22 07:06:00;;;;;;;3.47;3.17;;;;;;;;;;5037737;28;20207;-35
2022/08/22 07:08:30;;;;;;;14.10;3.40;;;;;;;;;;5030738;28;20243;-31
2022/08/22 07:10:59;;;;;;;3.83;2.73;;;;;;;;;;5039239;28;20216;-31
2022/08/22 07:13:27;;;;;;;4.03;3.63;;;;;;;;;;5033645;28;20201;-34
2022/08/22 07:15:56;;;;;;;3.80;2.50;;;;;;;;;;5047189;28;20263;-35
2022/08/22 07:18:25;;;;;;;4.07;3.43;;;;;;;;;;5047719;28;20232;-35
2022/08/22 07:20:53;;;;;;;4.15;2.80;;;;;;;;;;5045877;28;20201;-33
2022/08/22 07:23:26;;;;;;;3.80;3.20;;;;;;;;;;5037224;28;20537;-31
2022/08/22 07:25:56;;;;;;;5.35;3.22;;;;;;;;;;5032302;28;20201;-32
2022/08/22 07:28:31;;;;;;;4.57;2.92;;;;;;;;;;5030891;28;20230;-35
2022/08/22 07:31:00;;;;;;;5.38;3.05;;;;;;;;;;5036052;28;20202;-36
2022/08/22 07:33:34;;;;;;;3.72;3.33;;;;;;;;;;5045110;28;20202;-31
2022/08/22 07:36:02;;;;;;;6.43;3.55;;;;;;;;;;5048420;28;20195;-36
2022/08/22 07:38:36;;;;;;;3.17;2.95;;;;;;;;;;5039670;28;20593;-33
2022/08/22 07:41:07;;;;;;;6.70;3.67;;;;;;;;;;5036650;28;20212;-36
2022/08/22 07:43:36;;;;;;;3.35;3.15;;;;;;;;;;5043113;28;20215;-36
2022/08/22 07:46:12;;;;;;;4.68;3.30;;;;;;;;;;5040143;28;20209;-37
2022/08/22 07:48:47;;;;;;;4.07;3.38;;;;;;;;;;5030010;28;20235;-35
2022/08/22 07:51:16;;;;;;;6.63;3.53;;;;;;;;;;5037565;28;20204;-33
2022/08/22 07:53:46;;;;;;;4.78;3.40;;;;;;;;;;5041234;28;20225;-33
2022/08/22 07:56:15;;;;;;;5.43;3.00;;;;;;;;;;5048901;28;20203;-34
2022/08/22 07:58:44;;;;;;;4.07;3.30;;;;;;;;;;5031859;28;20231;-34
2022/08/22 08:01:15;;;;;;;4.18;3.35;;;;;;;;;;5033088;28;20204;-33
2022/08/22 08:03:44;;;;;;;4.20;3.17;;;;;;;;;;5040037;28;20232;-33
2022/08/22 08:06:12;;;;;;;3.83;3.33;;;;;;;;;;5034768;28;20208;-34
2022/08/22 08:08:40;;;;;;;4.05;3.58;;;;;;;;;;5045460;28;20227;-34
2022/08/22 08:11:10;;;;;;;7.20;3.30;;;;;;;;;;5045230;28;20209;-36
2022/08/22 08:13:40;;;;;;;7.03;3.70;;;;;;;;;;5046273;28;20222;-32
2022/08/22 08:16:09;;;;;;;4.05;3.60;;;;;;;;;;5037693;28;20202;-34
2022/08/22 08:18:38;;;;;;;5.20;3.53;;;;;;;;;;5034442;28;20230;-32
2022/08/22 08:21:07;;;;;;;4.28;3.63;;;;;;;;;;5038436;28;20201;-31
2022/08/22 08:23:37;;;;;;;5.00;3.40;;;;;;;;;;5034362;28;20201;-35
2022/08/22 08:26:07;;;;;;;3.80;3.50;;;;;;;;;;5039729;28;20266;-34
2022/08/22 08:28:38;;;;;;;4.07;3.67;;;;;;;;;;5030626;28;20342;-34
2022/08/22 08:31:11;;;;;;;4.05;3.53;;;;;;;;;;5033978;28;20295;-32
2022/08/22 08:33:44;;;;;;;7.95;4.30;;;;;;;;;;5029655;28;20208;-34
2022/08/22 08:36:18;;;;;;;6.25;3.58;;;;;;;;;;5040850;28;20197;-34
2022/08/22 08:38:48;;;;;;;4.60;3.55;;;;;;;;;;5040488;28;20233;-32
2022/08/22 08:41:42;;;;;;;5.57;3.67;;;;;;;;;;5032264;28;20216;-34
2022/08/22 08:44:16;;;;;;;4.05;3.25;;;;;;;;;;5025713;28;20226;-34
2022/08/22 08:46:50;;;;;;;3.85;3.55;;;;;;;;;;5047658;28;20259;-33
2022/08/22 08:49:28;;;;;;;3.78;3.30;;;;;;;;;;5041578;28;20200;-34
2022/08/22 08:52:12;;;;;;;3.70;3.40;;;;;;;;;;5031397;28;20193;-36
2022/08/22 08:54:54;;;;;;;3.63;3.33;;;;;;;;;;5032045;28;20219;-31
2022/08/22 08:57:29;;;;;;;5.70;3.58;;;;;;;;;;5041804;28;20761;-34
2022/08/22 09:00:04;;;;;;;5.18;3.70;;;;;;;;;;5035129;28;20195;-36
2022/08/22 09:02:49;;;;;;;3.90;3.60;;;;;;;;;;5039911;28;20203;-36
2022/08/22 09:05:46;;;;;;;3.85;3.55;;;;;;;;;;5035926;28;20197;-33
2022/08/22 09:08:38;;;;;;;5.00;3.47;;;;;;;;;;5026167;28;20316;-33
2022/08/22 09:11:13;;;;;;;4.18;3.15;;;;;;;;;;5032806;28;20200;-37
2022/08/22 09:13:46;;;;;;;3.63;3.35;;;;;;;;;;5042263;28;20216;-36
2022/08/22 09:16:21;;;;;;;4.38;3.67;;;;;;;;;;5036352;28;20215;-35
2022/08/22 09:19:01;;;;;;;3.55;3.25;;;;;;;;;;5033165;28;20236;-32
2022/08/22 09:21:39;;;;;;;3.80;3.50;;;;;;;;;;5037129;28;20200;-37
2022/08/22 09:24:30;;;;;;;3.53;3.22;;;;;;;;;;5034913;28;20228;-34
2022/08/22 09:27:00;;;;;;;4.28;3.58;;;;;;;;;;5039808;28;20225;-33
2022/08/22 09:29:40;;;;;;;3.97;3.58;;;;;;;;;;5031071;28;20209;-34
2022/08/22 09:32:12;;;;;;;6.22;3.88;;;;;;;;;;5032905;28;20240;-34
2022/08/22 09:34:45;;;;;;;3.90;3.60;;;;;;;;;;5042041;28;20253;-32
2022/08/22 09:37:18;;;;;;;4.00;3.60;;;;;;;;;;5045541;28;20228;-33
2022/08/22 09:39:51;;;;;;;4.03;3.63;;;;;;;;;;5041976;28;20233;-31
2022/08/22 09:42:21;;;;;;;3.50;3.20;;;;;;;;;;5051250;28;20204;-35
2022/08/22 09:44:56;;;;;;;3.65;3.35;;;;;;;;;;5051962;28;20214;-34
2022/08/22 09:47:29;;;;;;;4.32;3.25;;;;;;;;;;5045889;28;20227;-34
2022/08/22 09:50:02;;;;;;;3.45;3.15;;;;;;;;;;5035937;28;20205;-32
2022/08/22 09:52:49;;;;;;;3.65;3.35;;;;;;;;;;5044299;28;20208;-35
2022/08/22 09:55:21;;;;;;;4.00;3.70;;;;;;;;;;5043093;28;20232;-34
2022/08/22 09:57:51;;;;;;;3.75;3.30;;;;;;;;;;5036229;28;20259;-34
2022/08/22 10:00:23;;;;;;;4.00;3.60;;;;;;;;;;5031136;28;20218;-34
2022/08/22 10:02:59;;;;;;;3.70;3.10;;;;;;;;;;5044089;28;20294;-33
2022/08/22 10:05:28;;;;;;;3.80;3.33;;;;;;;;;;5038425;28;20197;-31
2022/08/22 10:08:06;;;;;;;3.67;3.28;;;;;;;;;;5033968;28;20223;-35
2022/08/22 10:10:41;;;;;;;8.60;3.30;;;;;;;;;;5032848;28;20209;-35
2022/08/22 10:13:11;;;;;;;3.35;3.15;;;;;;;;;;5050544;28;20199;-33
2022/08/22 10:15:40;;;;;;;4.63;3.28;;;;;;;;;;5041335;28;20217;-34
2022/08/22 10:18:15;;;;;;;3.47;3.17;;;;;;;;;;5040134;28;20316;-32
2022/08/22 10:20:50;;;;;;;3.67;3.22;;;;;;;;;;5032886;28;20286;-35
2022/08/22 10:23:20;;;;;;;5.65;3.13;;;;;;;;;;5036948;28;20194;-35
2022/08/22 10:25:50;;;;;;;4.05;3.63;;;;;;;;;;5049699;28;20203;-31
2022/08/22 10:28:25;;;;;;;3.00;2.70;;;;;;;;;;5032232;28;20225;-33
2022/08/22 10:30:59;;;;;;;3.33;3.03;;;;;;;;;;5032627;28;20213;-35
2022/08/22 10:33:31;;;;;;;3.80;3.08;;;;;;;;;;5034511;28;20210;-35
2022/08/22 10:36:02;;;;;;;3.88;2.85;;;;;;;;;;5048988;28;20307;-33
2022/08/22 10:38:31;;;;;;;4.03;3.05;;;;;;;;;;5039342;28;20229;-32
2022/08/22 10:41:03;;;;;;;4.30;2.80;;;;;;;;;;5042586;28;20207;-34
2022/08/22 10:43:33;;;;;;;4.18;3.30;;;;;;;;;;5052111;28;20191;-33
2022/08/22 10:46:03;;;;;;;3.97;2.83;;;;;;;;;;5041822;28;20192;-33
2022/08/22 10:48:39;;;;;;;3.05;2.80;;;;;;;;;;5049067;28;20229;-33
2022/08/22 10:51:15;;;;;;;3.60;2.80;;;;;;;;;;5052742;28;20205;-32
2022/08/22 10:53:52;;;;;;;4.05;2.50;;;;;;;;;;5041404;28;20206;-34
2022/08/22 10:56:24;;;;;;;2.92;2.72;;;;;;;;;;5035409;28;20203;-34
2022/08/22 10:58:55;;;;;;;3.58;3.03;;;;;;;;;;5031515;28;20445;-35
2022/08/22 11:01:24;;;;;;;3.13;2.83;;;;;;;;;;5029938;28;20688;-36
2022/08/22 11:04:00;;;;;;;3.20;2.90;;;;;;;;;;5033865;28;20199;-34
2022/08/22 11:06:30;;;;;;;2.90;2.70;;;;;;;;;;5029110;28;20199;-33
2022/08/22 11:09:15;;;;;;;4.75;2.95;;;;;;;;;;5040624;28;20672;-33
2022/08/22 11:11:45;;;;;;;3.22;2.92;;;;;;;;;;5050206;28;20197;-30
2022/08/22 11:14:35;;;;;;;2.65;2.45;;;;;;;;;;5051534;28;20213;-32
2022/08/22 11:17:08;;;;;;;6.57;3.00;;;;;;;;;;5046220;28;20234;-31
2022/08/22 11:19:43;;;;;;;3.35;2.90;;;;;;;;;;5040471;28;20211;-36
2022/08/22 11:22:15;;;;;;;2.97;2.65;;;;;;;;;;5048174;28;20216;-35
2022/08/22 11:24:53;;;;;;;3.13;2.83;;;;;;;;;;5040498;28;20191;-34
2022/08/22 11:27:24;;;;;;;2.58;2.38;;;;;;;;;;5035180;28;20275;-32
2022/08/22 11:30:03;;;;;;;4.45;2.40;;;;;;;;;;5036407;28;20202;-30
2022/08/22 11:32:36;;;;;;;4.20;3.00;;;;;;;;;;5047886;28;20204;-32
2022/08/22 11:35:06;;;;;;;3.67;2.65;;;;;;;;;;5049654;28;20233;-32
2022/08/22 11:37:44;;;;;;;2.72;2.53;;;;;;;;;;5045036;28;20222;-32
2022/08/22 11:40:18;;;;;;;3.65;2.70;;;;;;;;;;5045582;28;20218;-36
2022/08/22 11:42:47;;;;;;;2.45;2.25;;;;;;;;;;5049847;28;20203;-32
2022/08/22 11:45:18;;;;;;;2.83;2.63;;;;;;;;;;5044404;28;20235;-35
2022/08/22 11:47:47;;;;;;;2.88;2.67;;;;;;;;;;5043250;28;20249;-34
2022/08/22 11:50:19;;;;;;;3.47;2.53;;;;;;;;;;5049162;28;20711;-32
2022/08/22 11:52:54;;;;;;;2.75;2.50;;;;;;;;;;5044840;28;20212;-34
2022/08/22 11:55:23;;;;;;;2.97;2.47;;;;;;;;;;5044071;28;20236;-36
2022/08/22 11:57:52;;;;;;;3.83;2.78;;;;;;;;;;5043207;28;20317;-35
2022/08/22 12:00:25;;;;;;;3.17;2.13;;;;;;;;;;5045361;28;20202;-34
2022/08/22 12:03:11;;;;;;;2.85;2.55;;;;;;;;;;5043486;28;20364;-35
2022/08/22 12:05:44;;;;;;;2.83;2.42;;;;;;;;;;5033571;28;20202;-33
2022/08/22 12:08:14;;;;;;;2.70;2.50;;;;;;;;;;5043328;28;20251;-33
2022/08/22 12:10:45;;;;;;;2.60;2.40;;;;;;;;;;5046627;28;20207;-37
2022/08/22 12:13:16;;;;;;;3.13;1.95;;;;;;;;;;5045264;28;20200;-34
2022/08/22 12:15:47;;;;;;;2.50;2.03;;;;;;;;;;5042200;28;20217;-35
2022/08/22 12:18:38;;;;;;;3.08;2.30;;;;;;;;;;5043991;28;20229;-32
2022/08/22 12:21:15;;;;;;;3.45;2.42;;;;;;;;;;5029368;28;20216;-32
2022/08/22 12:24:00;;;;;;;2.40;2.20;;;;;;;;;;5046783;28;20275;-35
2022/08/22 12:26:30;;;;;;;2.35;2.17;;;;;;;;;;5035011;28;20197;-34
2022/08/22 12:29:04;;;;;;;3.25;2.35;;;;;;;;;;5048886;28;20379;-31
2022/08/22 12:31:36;;;;;;;5.35;2.58;;;;;;;;;;5044882;28;20212;-35
2022/08/22 12:34:12;;;;;;;3.05;2.50;;;;;;;;;;5035791;28;20303;-32
2022/08/22 12:36:56;;;;;;;3.53;2.25;;;;;;;;;;5045289;28;20433;-35
2022/08/22 12:39:36;;;;;;;3.63;2.38;;;;;;;;;;5037236;28;20718;-34
2022/08/22 12:42:08;;;;;;;4.60;2.50;;;;;;;;;;5046162;28;20202;-33
2022/08/22 12:44:44;;;;;;;4.53;2.38;;;;;;;;;;5048936;28;20215;-37
2022/08/22 12:47:24;;;;;;;2.20;1.80;;;;;;;;;;5033325;28;20232;-33
2022/08/22 12:50:02;;;;;;;3.05;2.33;;;;;;;;;;5048402;28;20199;-35
2022/08/22 12:52:38;;;;;;;2.35;2.10;;;;;;;;;;5039361;28;20213;-31
2022/08/22 12:55:19;;;;;;;2.53;2.33;;;;;;;;;;5044601;28;20691;-31
2022/08/22 12:57:49;;;;;;;2.97;2.17;;;;;;;;;;5045616;28;20223;-34
2022/08/22 13:00:23;;;;;;;2.58;2.38;;;;;;;;;;5047945;28;20203;-34
2022/08/22 13:02:53;;;;;;;8.32;2.53;;;;;;;;;;5041330;28;20225;-35
2022/08/22 13:05:22;;;;;;;2.80;2.33;;;;;;;;;;5044915;28;20557;-33
2022/08/22 13:07:54;;;;;;;3.08;2.30;;;;;;;;;;5042062;28;20224;-35
2022/08/22 13:10:34;;;;;;;4.18;2.40;;;;;;;;;;5047238;28;20204;-32
2022/08/22 13:13:11;;;;;;;4.22;2.53;;;;;;;;;;5040439;28;20286;-32
2022/08/22 13:15:41;;;;;;;3.78;2.17;;;;;;;;;;5033817;28;20232;-33
2022/08/22 13:18:13;;;;;;;2.28;2.17;;;;;;;;;;5043905;28;20226;-31
2022/08/22 13:20:42;;;;;;;2.70;2.10;;;;;;;;;;5039926;28;20203;-33
2022/08/22 13:23:14;;;;;;;2.58;2.33;;;;;;;;;;5036708;28;20276;-34
2022/08/22 13:25:55;;;;;;;5.03;2.35;;;;;;;;;;5042298;28;20204;-32
2022/08/22 13:28:23;;;;;;;2.38;2.17;;;;;;;;;;5048935;28;20247;-35
2022/08/22 13:30:52;;;;;;;3.55;2.10;;;;;;;;;;5049954;28;20236;-33
2022/08/22 13:33:25;;;;;;;3.15;2.72;;;;;;;;;;5037772;28;20220;-32
2022/08/22 13:35:54;;;;;;;2.30;2.10;;;;;;;;;;5045567;28;20221;-33
2022/08/22 13:38:23;;;;;;;3.13;2.35;;;;;;;;;;5034433;28;20227;-34
2022/08/22 13:40:52;;;;;;;2.17;1.98;;;;;;;;;;5046042;28;20204;-34
2022/08/22 13:43:22;;;;;;;3.13;2.60;;;;;;;;;;5048779;28;20215;-33
2022/08/22 13:45:53;;;;;;;2.38;2.17;;;;;;;;;;5034026;28;20198;-33
2022/08/22 13:48:22;;;;;;;2.55;2.22;;;;;;;;;;5034762;28;20226;-35
2022/08/22 13:50:57;;;;;;;3.33;2.40;;;;;;;;;;5041441;28;20213;-33
2022/08/22 13:53:29;;;;;;;2.58;2.35;;;;;;;;;;5034286;28;20199;-31
2022/08/22 13:56:02;;;;;;;3.30;2.40;;;;;;;;;;5043113;28;20228;-35
2022/08/22 13:58:35;;;;;;;2.60;2.38;;;;;;;;;;5044224;28;20246;-34
2022/08/22 14:01:07;;;;;;;3.72;2.13;;;;;;;;;;5043074;28;20207;-36
2022/08/22 14:03:38;;;;;;;2.60;2.10;;;;;;;;;;5045156;28;20207;-37
2022/08/22 14:06:10;;;;;;;2.60;2.17;;;;;;;;;;5042999;28;20682;-37
2022/08/22 14:08:41;;;;;;;3.03;2.35;;;;;;;;;;5042378;28;20555;-32
2022/08/22 14:11:10;;;;;;;3.83;2.20;;;;;;;;;;5046687;28;20227;-33
2022/08/22 14:13:41;;;;;;;2.13;1.98;;;;;;;;;;5049195;28;20208;-35
2022/08/22 14:16:12;;;;;;;2.78;2.08;;;;;;;;;;5049621;28;20220;-35
2022/08/22 14:18:41;;;;;;;2.63;2.03;;;;;;;;;;5049941;28;20227;-35
2022/08/22 14:21:20;;;;;;;3.42;2.28;;;;;;;;;;5049164;28;20211;-36
2022/08/22 14:23:52;;;;;;;2.78;2.17;;;;;;;;;;5045585;28;20206;-34
2022/08/22 14:26:24;;;;;;;7.13;2.20;;;;;;;;;;5044819;28;20240;-32
2022/08/22 14:28:53;;;;;;;2.72;1.92;;;;;;;;;;5051008;28;20211;-31
2022/08/22 14:31:23;;;;;;;2.70;2.50;;;;;;;;;;5040505;28;20208;-36
2022/08/22 14:33:52;;;;;;;3.97;2.42;;;;;;;;;;5039019;28;20204;-33
2022/08/22 14:36:22;;;;;;;2.20;2.00;;;;;;;;;;5044989;28;20235;-34
2022/08/22 14:38:52;;;;;;;5.18;2.28;;;;;;;;;;5039733;28;20239;-34
2022/08/22 14:41:28;;;;;;;3.28;2.47;;;;;;;;;;5174828;22;20236;-36
2022/08/22 14:43:57;;;;;;;2.63;2.20;;;;;;;;;;5094082;28;20200;-39
2022/08/22 14:46:27;;;;;;;2.50;2.30;;;;;;;;;;5076394;28;20200;-35
2022/08/22 14:49:25;;;;;;;4.22;2.10;;;;;;;;;;5066015;28;20261;-34
2022/08/22 14:51:56;;;;;;;2.10;2.00;;;;;;;;;;5034536;28;20270;-39
2022/08/22 14:54:24;;;;;;;5.05;2.15;;;;;;;;;;5057200;28;20299;-38
2022/08/22 14:56:53;;;;;;;2.78;2.40;;;;;;;;;;5068018;28;20234;-35
2022/08/22 14:59:35;;;;;;;2.65;2.28;;;;;;;;;;5073184;28;20218;-38
2022/08/22 15:02:04;;;;;;;2.92;2.05;;;;;;;;;;5060295;28;20204;-38
2022/08/22 15:04:36;;;;;;;2.38;1.98;;;;;;;;;;5052254;28;20297;-38
2022/08/22 15:07:04;;;;;;;4.25;2.53;;;;;;;;;;5048666;28;20246;-38
2022/08/22 15:09:33;;;;;;;2.95;1.90;;;;;;;;;;5059110;28;20213;-42
2022/08/22 15:12:02;;;;;;;3.22;2.15;;;;;;;;;;5073334;28;20206;-36
2022/08/22 15:14:45;;;;;;;2.50;1.83;;;;;;;;;;5057130;28;20303;-40
2022/08/22 15:17:31;;;;;;;2.78;2.10;;;;;;;;;;5050431;28;20257;-36
2022/08/22 15:20:08;;;;;;;2.20;2.00;;;;;;;;;;5058867;28;20196;-34
2022/08/22 15:22:37;;;;;;;2.97;2.40;;;;;;;;;;5060605;28;20208;-35
2022/08/22 15:25:07;;;;;;;2.20;2.10;;;;;;;;;;5069030;28;20289;-36